sensor_id;sensor_type;location;lat;lon;timestamp;P1;durP1;ratioP1;P2;durP2;ratioP2
5137;SDS011;53959;53.626;11.410;2022-07-21T00:01:13;26.67;;;12.73;;
5137;SDS011;53959;53.626;11.410;2022-07-21T00:03:39;25.23;;;12.73;;
5137;SDS011;53959;53.626;11.410;2022-07-21T00:06:05;23.97;;;13.37;;
5137;SDS011;53959;53.626;11.410;2022-07-21T00:08:31;22.93;;;13.33;;
5137;SDS011;53959;53.626;11.410;2022-07-21T00:10:56;23.90;;;13.33;;
5137;SDS011;53959;53.626;11.410;2022-07-21T00:13:22;46.53;;;13.10;;
5137;SDS011;53959;53.626;11.410;2022-07-21T00:15:47;30.63;;;13.70;;
5137;SDS011;53959;53.626;11.410;2022-07-21T00:18:14;28.47;;;13.20;;
5137;SDS011;53959;53.626;11.410;2022-07-21T00:20:40;28.70;;;13.90;;
5137;SDS011;53959;53.626;11.410;2022-07-21T00:23:06;20.43;;;13.57;;
5137;SDS011;53959;53.626;11.410;2022-07-21T00:25:31;28.50;;;14.37;;
5137;SDS011;53959;53.626;11.410;2022-07-21T00:27:57;25.90;;;14.60;;
5137;SDS011;53959;53.626;11.410;2022-07-21T00:30:22;26.20;;;14.60;;
5137;SDS011;53959;53.626;11.410;2022-07-21T00:32:48;21.77;;;14.20;;
5137;SDS011;53959;53.626;11.410;2022-07-21T00:35:14;25.77;;;16.20;;
5137;SDS011;53959;53.626;11.410;2022-07-21T00:37:39;25.57;;;14.30;;
5137;SDS011;53959;53.626;11.410;2022-07-21T00:40:05;33.07;;;16.20;;
5137;SDS011;53959;53.626;11.410;2022-07-21T00:42:32;30.93;;;16.40;;
5137;SDS011;53959;53.626;11.410;2022-07-21T00:44:58;28.27;;;15.80;;
5137;SDS011;53959;53.626;11.410;2022-07-21T00:47:26;28.27;;;16.23;;
5137;SDS011;53959;53.626;11.410;2022-07-21T00:49:53;25.23;;;15.47;;
5137;SDS011;53959;53.626;11.410;2022-07-21T00:52:20;34.00;;;17.17;;
5137;SDS011;53959;53.626;11.410;2022-07-21T00:54:46;35.37;;;17.40;;
5137;SDS011;53959;53.626;11.410;2022-07-21T00:57:12;24.13;;;17.00;;
5137;SDS011;53959;53.626;11.410;2022-07-21T00:59:38;23.83;;;15.90;;
5137;SDS011;53959;53.626;11.410;2022-07-21T01:02:05;32.73;;;17.73;;
5137;SDS011;53959;53.626;11.410;2022-07-21T01:04:31;36.23;;;18.73;;
5137;SDS011;53959;53.626;11.410;2022-07-21T01:06:57;31.23;;;19.23;;
5137;SDS011;53959;53.626;11.410;2022-07-21T01:09:25;29.73;;;18.70;;
5137;SDS011;53959;53.626;11.410;2022-07-21T01:11:51;30.73;;;16.83;;
5137;SDS011;53959;53.626;11.410;2022-07-21T01:14:16;31.57;;;18.53;;
5137;SDS011;53959;53.626;11.410;2022-07-21T01:16:42;25.27;;;18.67;;
5137;SDS011;53959;53.626;11.410;2022-07-21T01:19:11;32.17;;;18.00;;
5137;SDS011;53959;53.626;11.410;2022-07-21T01:21:41;31.73;;;18.70;;
5137;SDS011;53959;53.626;11.410;2022-07-21T01:24:09;30.23;;;19.70;;
5137;SDS011;53959;53.626;11.410;2022-07-21T01:26:44;45.77;;;20.40;;
5137;SDS011;53959;53.626;11.410;2022-07-21T01:29:15;33.40;;;19.37;;
5137;SDS011;53959;53.626;11.410;2022-07-21T01:31:42;34.40;;;19.13;;
5137;SDS011;53959;53.626;11.410;2022-07-21T01:34:09;31.83;;;21.60;;
5137;SDS011;53959;53.626;11.410;2022-07-21T01:36:35;29.97;;;20.00;;
5137;SDS011;53959;53.626;11.410;2022-07-21T01:39:01;35.27;;;21.70;;
5137;SDS011;53959;53.626;11.410;2022-07-21T01:41:47;33.47;;;21.10;;
5137;SDS011;53959;53.626;11.410;2022-07-21T01:44:12;35.67;;;21.77;;
5137;SDS011;53959;53.626;11.410;2022-07-21T01:46:40;39.60;;;21.93;;
5137;SDS011;53959;53.626;11.410;2022-07-21T01:49:10;31.77;;;21.57;;
5137;SDS011;53959;53.626;11.410;2022-07-21T01:51:37;40.53;;;22.40;;
5137;SDS011;53959;53.626;11.410;2022-07-21T01:54:03;37.27;;;23.17;;
5137;SDS011;53959;53.626;11.410;2022-07-21T01:56:29;43.10;;;23.27;;
5137;SDS011;53959;53.626;11.410;2022-07-21T01:58:56;36.07;;;22.90;;
5137;SDS011;53959;53.626;11.410;2022-07-21T02:01:22;37.83;;;24.17;;
5137;SDS011;53959;53.626;11.410;2022-07-21T02:03:51;40.70;;;23.90;;
5137;SDS011;53959;53.626;11.410;2022-07-21T02:06:18;43.03;;;26.53;;
5137;SDS011;53959;53.626;11.410;2022-07-21T02:08:43;40.33;;;24.47;;
5137;SDS011;53959;53.626;11.410;2022-07-21T02:11:09;44.10;;;23.50;;
5137;SDS011;53959;53.626;11.410;2022-07-21T02:13:36;39.30;;;26.20;;
5137;SDS011;53959;53.626;11.410;2022-07-21T02:16:01;45.23;;;26.53;;
5137;SDS011;53959;53.626;11.410;2022-07-21T02:18:28;44.80;;;24.47;;
5137;SDS011;53959;53.626;11.410;2022-07-21T02:20:54;42.30;;;23.80;;
5137;SDS011;53959;53.626;11.410;2022-07-21T02:23:20;43.93;;;25.37;;
5137;SDS011;53959;53.626;11.410;2022-07-21T02:25:46;49.37;;;28.40;;
5137;SDS011;53959;53.626;11.410;2022-07-21T02:28:12;59.73;;;27.40;;
5137;SDS011;53959;53.626;11.410;2022-07-21T02:30:38;55.20;;;27.97;;
5137;SDS011;53959;53.626;11.410;2022-07-21T02:33:04;46.40;;;26.57;;
5137;SDS011;53959;53.626;11.410;2022-07-21T02:35:30;48.77;;;27.20;;
5137;SDS011;53959;53.626;11.410;2022-07-21T02:37:56;59.17;;;26.90;;
5137;SDS011;53959;53.626;11.410;2022-07-21T02:40:21;49.43;;;27.67;;
5137;SDS011;53959;53.626;11.410;2022-07-21T02:42:47;49.63;;;25.90;;
5137;SDS011;53959;53.626;11.410;2022-07-21T02:45:12;45.97;;;29.00;;
5137;SDS011;53959;53.626;11.410;2022-07-21T02:47:48;52.67;;;27.27;;
5137;SDS011;53959;53.626;11.410;2022-07-21T02:50:26;54.77;;;28.40;;
5137;SDS011;53959;53.626;11.410;2022-07-21T02:52:54;50.50;;;29.30;;
5137;SDS011;53959;53.626;11.410;2022-07-21T02:55:24;54.57;;;28.70;;
5137;SDS011;53959;53.626;11.410;2022-07-21T03:00:43;55.10;;;28.40;;
5137;SDS011;53959;53.626;11.410;2022-07-21T03:03:11;46.30;;;25.80;;
5137;SDS011;53959;53.626;11.410;2022-07-21T03:05:37;46.07;;;26.93;;
5137;SDS011;53959;53.626;11.410;2022-07-21T03:08:03;61.80;;;27.33;;
5137;SDS011;53959;53.626;11.410;2022-07-21T03:10:30;51.80;;;27.77;;
5137;SDS011;53959;53.626;11.410;2022-07-21T03:12:55;44.50;;;26.50;;
5137;SDS011;53959;53.626;11.410;2022-07-21T03:15:21;66.50;;;28.33;;
5137;SDS011;53959;53.626;11.410;2022-07-21T03:17:47;53.87;;;28.47;;
5137;SDS011;53959;53.626;11.410;2022-07-21T03:20:12;70.23;;;28.33;;
5137;SDS011;53959;53.626;11.410;2022-07-21T03:22:38;55.60;;;28.93;;
5137;SDS011;53959;53.626;11.410;2022-07-21T03:25:04;55.80;;;28.37;;
5137;SDS011;53959;53.626;11.410;2022-07-21T03:27:30;60.87;;;28.40;;
5137;SDS011;53959;53.626;11.410;2022-07-21T03:30:01;49.27;;;28.97;;
5137;SDS011;53959;53.626;11.410;2022-07-21T03:32:33;51.63;;;28.23;;
5137;SDS011;53959;53.626;11.410;2022-07-21T03:34:59;50.70;;;27.70;;
5137;SDS011;53959;53.626;11.410;2022-07-21T03:37:25;54.10;;;28.30;;
5137;SDS011;53959;53.626;11.410;2022-07-21T03:39:52;57.70;;;27.97;;
5137;SDS011;53959;53.626;11.410;2022-07-21T03:42:17;49.07;;;28.23;;
5137;SDS011;53959;53.626;11.410;2022-07-21T03:44:43;57.27;;;29.53;;
5137;SDS011;53959;53.626;11.410;2022-07-21T03:47:08;49.93;;;30.17;;
5137;SDS011;53959;53.626;11.410;2022-07-21T03:49:34;53.10;;;31.00;;
5137;SDS011;53959;53.626;11.410;2022-07-21T03:52:00;51.93;;;30.60;;
5137;SDS011;53959;53.626;11.410;2022-07-21T03:54:25;49.43;;;30.47;;
5137;SDS011;53959;53.626;11.410;2022-07-21T03:56:51;52.47;;;28.87;;
5137;SDS011;53959;53.626;11.410;2022-07-21T03:59:16;47.40;;;28.37;;
5137;SDS011;53959;53.626;11.410;2022-07-21T04:01:43;49.90;;;30.07;;
5137;SDS011;53959;53.626;11.410;2022-07-21T04:04:08;53.97;;;27.80;;
5137;SDS011;53959;53.626;11.410;2022-07-21T04:06:34;59.27;;;27.97;;
5137;SDS011;53959;53.626;11.410;2022-07-21T04:09:00;52.87;;;26.53;;
5137;SDS011;53959;53.626;11.410;2022-07-21T04:11:25;55.37;;;25.30;;
5137;SDS011;53959;53.626;11.410;2022-07-21T04:13:51;33.13;;;23.23;;
5137;SDS011;53959;53.626;11.410;2022-07-21T04:16:16;34.87;;;23.33;;
5137;SDS011;53959;53.626;11.410;2022-07-21T04:18:42;39.37;;;22.67;;
5137;SDS011;53959;53.626;11.410;2022-07-21T04:21:07;42.37;;;23.30;;
5137;SDS011;53959;53.626;11.410;2022-07-21T04:23:33;36.87;;;21.90;;
5137;SDS011;53959;53.626;11.410;2022-07-21T04:25:58;46.23;;;22.23;;
5137;SDS011;53959;53.626;11.410;2022-07-21T04:28:24;35.97;;;20.60;;
5137;SDS011;53959;53.626;11.410;2022-07-21T04:30:50;31.07;;;18.23;;
5137;SDS011;53959;53.626;11.410;2022-07-21T04:33:15;36.73;;;20.40;;
5137;SDS011;53959;53.626;11.410;2022-07-21T04:35:41;33.43;;;20.03;;
5137;SDS011;53959;53.626;11.410;2022-07-21T04:38:08;34.50;;;18.67;;
5137;SDS011;53959;53.626;11.410;2022-07-21T04:40:35;32.03;;;19.03;;
5137;SDS011;53959;53.626;11.410;2022-07-21T04:43:01;33.47;;;19.13;;
5137;SDS011;53959;53.626;11.410;2022-07-21T04:45:27;35.33;;;16.93;;
5137;SDS011;53959;53.626;11.410;2022-07-21T04:47:53;29.90;;;18.17;;
5137;SDS011;53959;53.626;11.410;2022-07-21T04:50:21;36.80;;;18.13;;
5137;SDS011;53959;53.626;11.410;2022-07-21T04:52:48;32.70;;;18.20;;
5137;SDS011;53959;53.626;11.410;2022-07-21T04:55:14;28.73;;;17.40;;
5137;SDS011;53959;53.626;11.410;2022-07-21T04:57:43;33.43;;;17.20;;
5137;SDS011;53959;53.626;11.410;2022-07-21T05:00:12;29.63;;;16.80;;
5137;SDS011;53959;53.626;11.410;2022-07-21T05:02:39;28.33;;;16.03;;
5137;SDS011;53959;53.626;11.410;2022-07-21T05:05:05;30.73;;;17.20;;
5137;SDS011;53959;53.626;11.410;2022-07-21T05:07:32;34.43;;;15.57;;
5137;SDS011;53959;53.626;11.410;2022-07-21T05:09:57;28.47;;;15.37;;
5137;SDS011;53959;53.626;11.410;2022-07-21T05:12:24;28.40;;;14.10;;
5137;SDS011;53959;53.626;11.410;2022-07-21T05:14:50;33.40;;;14.97;;
5137;SDS011;53959;53.626;11.410;2022-07-21T05:17:16;25.47;;;14.60;;
5137;SDS011;53959;53.626;11.410;2022-07-21T05:19:42;23.70;;;14.17;;
5137;SDS011;53959;53.626;11.410;2022-07-21T05:22:08;34.53;;;15.03;;
5137;SDS011;53959;53.626;11.410;2022-07-21T05:24:34;28.27;;;14.87;;
5137;SDS011;53959;53.626;11.410;2022-07-21T05:26:59;24.87;;;13.97;;
5137;SDS011;53959;53.626;11.410;2022-07-21T05:29:25;26.43;;;15.00;;
5137;SDS011;53959;53.626;11.410;2022-07-21T05:31:50;34.20;;;12.53;;
5137;SDS011;53959;53.626;11.410;2022-07-21T05:34:16;26.40;;;13.97;;
5137;SDS011;53959;53.626;11.410;2022-07-21T05:36:41;27.10;;;12.43;;
5137;SDS011;53959;53.626;11.410;2022-07-21T05:39:07;22.37;;;11.70;;
5137;SDS011;53959;53.626;11.410;2022-07-21T05:41:33;23.77;;;11.90;;
5137;SDS011;53959;53.626;11.410;2022-07-21T05:43:58;25.03;;;11.43;;
5137;SDS011;53959;53.626;11.410;2022-07-21T05:46:24;22.03;;;11.20;;
5137;SDS011;53959;53.626;11.410;2022-07-21T05:48:49;23.80;;;11.40;;
5137;SDS011;53959;53.626;11.410;2022-07-21T05:51:15;19.97;;;11.43;;
5137;SDS011;53959;53.626;11.410;2022-07-21T05:53:40;18.83;;;11.47;;
5137;SDS011;53959;53.626;11.410;2022-07-21T05:56:06;24.77;;;12.00;;
5137;SDS011;53959;53.626;11.410;2022-07-21T05:58:33;29.23;;;11.83;;
5137;SDS011;53959;53.626;11.410;2022-07-21T06:00:59;21.40;;;10.53;;
5137;SDS011;53959;53.626;11.410;2022-07-21T06:03:36;26.83;;;11.00;;
5137;SDS011;53959;53.626;11.410;2022-07-21T06:06:13;26.97;;;11.90;;
5137;SDS011;53959;53.626;11.410;2022-07-21T06:08:44;23.77;;;12.40;;
5137;SDS011;53959;53.626;11.410;2022-07-21T06:11:12;29.67;;;11.47;;
5137;SDS011;53959;53.626;11.410;2022-07-21T06:13:40;22.33;;;10.50;;
5137;SDS011;53959;53.626;11.410;2022-07-21T06:16:06;28.77;;;10.77;;
5137;SDS011;53959;53.626;11.410;2022-07-21T06:18:32;23.73;;;11.07;;
5137;SDS011;53959;53.626;11.410;2022-07-21T06:20:58;21.33;;;10.70;;
5137;SDS011;53959;53.626;11.410;2022-07-21T06:23:24;23.40;;;11.20;;
5137;SDS011;53959;53.626;11.410;2022-07-21T06:25:50;22.03;;;11.47;;
5137;SDS011;53959;53.626;11.410;2022-07-21T06:28:16;25.87;;;10.83;;
5137;SDS011;53959;53.626;11.410;2022-07-21T06:30:42;27.93;;;11.20;;
5137;SDS011;53959;53.626;11.410;2022-07-21T06:33:08;28.03;;;11.23;;
5137;SDS011;53959;53.626;11.410;2022-07-21T06:35:34;21.53;;;12.00;;
5137;SDS011;53959;53.626;11.410;2022-07-21T06:37:59;20.30;;;11.23;;
5137;SDS011;53959;53.626;11.410;2022-07-21T06:40:25;35.90;;;12.90;;
5137;SDS011;53959;53.626;11.410;2022-07-21T06:42:51;33.50;;;12.57;;
5137;SDS011;53959;53.626;11.410;2022-07-21T06:45:17;27.40;;;11.40;;
5137;SDS011;53959;53.626;11.410;2022-07-21T06:47:42;19.37;;;10.53;;
5137;SDS011;53959;53.626;11.410;2022-07-21T06:50:08;24.50;;;12.37;;
5137;SDS011;53959;53.626;11.410;2022-07-21T06:52:35;31.40;;;12.00;;
5137;SDS011;53959;53.626;11.410;2022-07-21T06:55:01;27.47;;;14.30;;
5137;SDS011;53959;53.626;11.410;2022-07-21T06:57:28;27.73;;;11.50;;
5137;SDS011;53959;53.626;11.410;2022-07-21T06:59:54;25.67;;;10.73;;
5137;SDS011;53959;53.626;11.410;2022-07-21T07:02:19;15.67;;;8.87;;
5137;SDS011;53959;53.626;11.410;2022-07-21T07:04:45;24.40;;;10.37;;
5137;SDS011;53959;53.626;11.410;2022-07-21T07:07:10;20.57;;;10.23;;
5137;SDS011;53959;53.626;11.410;2022-07-21T07:09:36;24.77;;;10.57;;
5137;SDS011;53959;53.626;11.410;2022-07-21T07:12:01;24.37;;;12.23;;
5137;SDS011;53959;53.626;11.410;2022-07-21T07:14:32;29.07;;;9.70;;
5137;SDS011;53959;53.626;11.410;2022-07-21T07:16:58;33.13;;;10.83;;
5137;SDS011;53959;53.626;11.410;2022-07-21T07:19:25;23.03;;;10.80;;
5137;SDS011;53959;53.626;11.410;2022-07-21T07:21:52;20.57;;;9.50;;
5137;SDS011;53959;53.626;11.410;2022-07-21T07:24:17;24.83;;;10.80;;
5137;SDS011;53959;53.626;11.410;2022-07-21T07:26:43;18.13;;;9.93;;
5137;SDS011;53959;53.626;11.410;2022-07-21T07:29:09;22.93;;;9.50;;
5137;SDS011;53959;53.626;11.410;2022-07-21T07:31:35;22.27;;;9.27;;
5137;SDS011;53959;53.626;11.410;2022-07-21T07:34:01;17.33;;;9.83;;
5137;SDS011;53959;53.626;11.410;2022-07-21T07:36:28;14.03;;;10.47;;
5137;SDS011;53959;53.626;11.410;2022-07-21T07:38:54;26.37;;;11.03;;
5137;SDS011;53959;53.626;11.410;2022-07-21T07:41:21;22.73;;;10.00;;
5137;SDS011;53959;53.626;11.410;2022-07-21T07:43:48;21.30;;;9.50;;
5137;SDS011;53959;53.626;11.410;2022-07-21T07:46:14;18.23;;;10.33;;
5137;SDS011;53959;53.626;11.410;2022-07-21T07:48:40;15.13;;;9.03;;
5137;SDS011;53959;53.626;11.410;2022-07-21T07:51:07;23.17;;;9.97;;
5137;SDS011;53959;53.626;11.410;2022-07-21T07:53:33;24.13;;;10.97;;
5137;SDS011;53959;53.626;11.410;2022-07-21T07:55:59;16.97;;;10.10;;
5137;SDS011;53959;53.626;11.410;2022-07-21T07:58:25;18.50;;;9.63;;
5137;SDS011;53959;53.626;11.410;2022-07-21T08:00:51;21.23;;;9.50;;
5137;SDS011;53959;53.626;11.410;2022-07-21T08:03:17;19.03;;;10.10;;
5137;SDS011;53959;53.626;11.410;2022-07-21T08:05:43;13.60;;;9.23;;
5137;SDS011;53959;53.626;11.410;2022-07-21T08:08:09;24.33;;;10.27;;
5137;SDS011;53959;53.626;11.410;2022-07-21T08:10:35;30.33;;;10.53;;
5137;SDS011;53959;53.626;11.410;2022-07-21T08:13:00;19.73;;;8.87;;
5137;SDS011;53959;53.626;11.410;2022-07-21T08:15:26;17.03;;;8.73;;
5137;SDS011;53959;53.626;11.410;2022-07-21T08:17:52;34.17;;;10.47;;
5137;SDS011;53959;53.626;11.410;2022-07-21T08:20:17;27.33;;;9.93;;
5137;SDS011;53959;53.626;11.410;2022-07-21T08:22:43;14.20;;;8.57;;
5137;SDS011;53959;53.626;11.410;2022-07-21T08:25:08;21.03;;;11.13;;
5137;SDS011;53959;53.626;11.410;2022-07-21T08:27:34;12.90;;;9.77;;
5137;SDS011;53959;53.626;11.410;2022-07-21T08:30:00;19.03;;;10.27;;
5137;SDS011;53959;53.626;11.410;2022-07-21T08:32:25;32.93;;;12.10;;
5137;SDS011;53959;53.626;11.410;2022-07-21T08:34:51;19.23;;;10.73;;
5137;SDS011;53959;53.626;11.410;2022-07-21T08:37:18;21.13;;;10.83;;
5137;SDS011;53959;53.626;11.410;2022-07-21T08:39:45;22.63;;;10.30;;
5137;SDS011;53959;53.626;11.410;2022-07-21T08:42:12;27.80;;;9.10;;
5137;SDS011;53959;53.626;11.410;2022-07-21T08:44:39;17.60;;;9.33;;
5137;SDS011;53959;53.626;11.410;2022-07-21T08:47:04;23.17;;;8.87;;
5137;SDS011;53959;53.626;11.410;2022-07-21T08:49:31;18.47;;;9.33;;
5137;SDS011;53959;53.626;11.410;2022-07-21T08:51:58;16.03;;;8.83;;
5137;SDS011;53959;53.626;11.410;2022-07-21T08:54:24;9.13;;;7.93;;
5137;SDS011;53959;53.626;11.410;2022-07-21T08:56:50;12.83;;;7.73;;
5137;SDS011;53959;53.626;11.410;2022-07-21T08:59:15;14.07;;;7.53;;
5137;SDS011;53959;53.626;11.410;2022-07-21T09:01:41;11.77;;;7.43;;
5137;SDS011;53959;53.626;11.410;2022-07-21T09:04:23;21.50;;;7.07;;
5137;SDS011;53959;53.626;11.410;2022-07-21T09:06:55;16.33;;;7.13;;
5137;SDS011;53959;53.626;11.410;2022-07-21T09:09:23;9.60;;;6.90;;
5137;SDS011;53959;53.626;11.410;2022-07-21T09:11:49;16.33;;;6.53;;
5137;SDS011;53959;53.626;11.410;2022-07-21T09:14:18;15.00;;;6.20;;
5137;SDS011;53959;53.626;11.410;2022-07-21T09:16:51;9.53;;;6.00;;
5137;SDS011;53959;53.626;11.410;2022-07-21T09:19:22;15.20;;;6.40;;
5137;SDS011;53959;53.626;11.410;2022-07-21T09:21:52;27.30;;;7.87;;
5137;SDS011;53959;53.626;11.410;2022-07-21T09:27:01;7.30;;;4.57;;
5137;SDS011;53959;53.626;11.410;2022-07-21T09:29:32;7.77;;;4.87;;
5137;SDS011;53959;53.626;11.410;2022-07-21T09:32:11;9.23;;;4.77;;
5137;SDS011;53959;53.626;11.410;2022-07-21T09:34:43;8.43;;;4.70;;
5137;SDS011;53959;53.626;11.410;2022-07-21T09:37:09;4.70;;;4.10;;
5137;SDS011;53959;53.626;11.410;2022-07-21T09:42:17;7.03;;;3.77;;
5137;SDS011;53959;53.626;11.410;2022-07-21T09:44:46;8.90;;;4.40;;
5137;SDS011;53959;53.626;11.410;2022-07-21T09:47:15;4.60;;;3.60;;
5137;SDS011;53959;53.626;11.410;2022-07-21T09:49:42;11.13;;;4.87;;
5137;SDS011;53959;53.626;11.410;2022-07-21T09:52:21;7.30;;;3.87;;
5137;SDS011;53959;53.626;11.410;2022-07-21T09:54:49;8.03;;;4.23;;
5137;SDS011;53959;53.626;11.410;2022-07-21T09:57:16;6.80;;;4.27;;
5137;SDS011;53959;53.626;11.410;2022-07-21T09:59:43;5.97;;;3.50;;
5137;SDS011;53959;53.626;11.410;2022-07-21T10:02:10;7.07;;;3.60;;
5137;SDS011;53959;53.626;11.410;2022-07-21T10:04:41;9.13;;;4.00;;
5137;SDS011;53959;53.626;11.410;2022-07-21T10:07:09;7.77;;;4.33;;
5137;SDS011;53959;53.626;11.410;2022-07-21T10:09:35;7.97;;;4.03;;
5137;SDS011;53959;53.626;11.410;2022-07-21T10:12:01;8.73;;;3.87;;
5137;SDS011;53959;53.626;11.410;2022-07-21T10:14:27;7.77;;;3.73;;
5137;SDS011;53959;53.626;11.410;2022-07-21T10:16:53;6.63;;;3.40;;
5137;SDS011;53959;53.626;11.410;2022-07-21T10:19:20;6.43;;;3.27;;
5137;SDS011;53959;53.626;11.410;2022-07-21T10:22:01;12.83;;;3.00;;
5137;SDS011;53959;53.626;11.410;2022-07-21T10:24:34;7.80;;;3.30;;
5137;SDS011;53959;53.626;11.410;2022-07-21T10:32:14;15.13;;;3.90;;
5137;SDS011;53959;53.626;11.410;2022-07-21T10:34:41;7.53;;;3.90;;
5137;SDS011;53959;53.626;11.410;2022-07-21T10:37:08;6.57;;;3.40;;
5137;SDS011;53959;53.626;11.410;2022-07-21T10:39:34;11.30;;;4.03;;
5137;SDS011;53959;53.626;11.410;2022-07-21T10:42:02;15.30;;;4.33;;
5137;SDS011;53959;53.626;11.410;2022-07-21T10:44:42;10.00;;;4.10;;
5137;SDS011;53959;53.626;11.410;2022-07-21T10:47:13;8.43;;;3.80;;
5137;SDS011;53959;53.626;11.410;2022-07-21T10:49:42;6.83;;;3.73;;
5137;SDS011;53959;53.626;11.410;2022-07-21T10:55:18;14.10;;;3.70;;
5137;SDS011;53959;53.626;11.410;2022-07-21T11:00:47;8.33;;;3.53;;
5137;SDS011;53959;53.626;11.410;2022-07-21T11:11:09;6.63;;;2.90;;
5137;SDS011;53959;53.626;11.410;2022-07-21T11:25:00;6.23;;;3.20;;
5137;SDS011;53959;53.626;11.410;2022-07-21T11:27:29;5.50;;;3.20;;
5137;SDS011;53959;53.626;11.410;2022-07-21T11:29:57;9.10;;;3.50;;
5137;SDS011;53959;53.626;11.410;2022-07-21T11:32:24;6.97;;;3.33;;
5137;SDS011;53959;53.626;11.410;2022-07-21T11:34:57;7.97;;;3.70;;
5137;SDS011;53959;53.626;11.410;2022-07-21T11:39:57;13.90;;;3.43;;
5137;SDS011;53959;53.626;11.410;2022-07-21T11:42:24;5.20;;;3.27;;
5137;SDS011;53959;53.626;11.410;2022-07-21T11:44:51;10.33;;;3.70;;
5137;SDS011;53959;53.626;11.410;2022-07-21T11:47:17;6.07;;;3.00;;
5137;SDS011;53959;53.626;11.410;2022-07-21T11:49:45;14.77;;;3.70;;
5137;SDS011;53959;53.626;11.410;2022-07-21T11:52:15;12.40;;;3.97;;
5137;SDS011;53959;53.626;11.410;2022-07-21T11:54:49;7.20;;;3.00;;
5137;SDS011;53959;53.626;11.410;2022-07-21T11:57:18;9.20;;;3.90;;
5137;SDS011;53959;53.626;11.410;2022-07-21T11:59:45;14.80;;;3.50;;
5137;SDS011;53959;53.626;11.410;2022-07-21T12:02:15;4.00;;;3.50;;
5137;SDS011;53959;53.626;11.410;2022-07-21T12:04:51;5.13;;;4.10;;
5137;SDS011;53959;53.626;11.410;2022-07-21T12:10:00;3.37;;;3.07;;
5137;SDS011;53959;53.626;11.410;2022-07-21T12:12:42;3.97;;;3.10;;
5137;SDS011;53959;53.626;11.410;2022-07-21T12:15:10;7.10;;;4.50;;
5137;SDS011;53959;53.626;11.410;2022-07-21T12:17:37;9.77;;;4.37;;
5137;SDS011;53959;53.626;11.410;2022-07-21T12:20:04;10.23;;;4.30;;
5137;SDS011;53959;53.626;11.410;2022-07-21T12:22:35;8.37;;;3.90;;
5137;SDS011;53959;53.626;11.410;2022-07-21T12:25:08;5.53;;;3.40;;
5137;SDS011;53959;53.626;11.410;2022-07-21T12:27:38;6.53;;;4.07;;
5137;SDS011;53959;53.626;11.410;2022-07-21T12:30:05;12.53;;;4.73;;
5137;SDS011;53959;53.626;11.410;2022-07-21T12:32:40;4.53;;;4.10;;
5137;SDS011;53959;53.626;11.410;2022-07-21T12:35:18;5.70;;;4.37;;
5137;SDS011;53959;53.626;11.410;2022-07-21T12:37:52;10.90;;;4.33;;
5137;SDS011;53959;53.626;11.410;2022-07-21T12:40:18;10.73;;;4.77;;
5137;SDS011;53959;53.626;11.410;2022-07-21T12:42:44;13.17;;;5.63;;
5137;SDS011;53959;53.626;11.410;2022-07-21T12:45:14;7.13;;;5.33;;
5137;SDS011;53959;53.626;11.410;2022-07-21T12:47:41;6.50;;;4.83;;
5137;SDS011;53959;53.626;11.410;2022-07-21T12:50:08;9.87;;;5.07;;
5137;SDS011;53959;53.626;11.410;2022-07-21T12:52:40;11.87;;;4.47;;
5137;SDS011;53959;53.626;11.410;2022-07-21T12:55:06;13.53;;;4.47;;
5137;SDS011;53959;53.626;11.410;2022-07-21T12:57:32;4.60;;;4.20;;
5137;SDS011;53959;53.626;11.410;2022-07-21T12:59:59;7.13;;;4.47;;
5137;SDS011;53959;53.626;11.410;2022-07-21T13:02:25;5.37;;;4.20;;
5137;SDS011;53959;53.626;11.410;2022-07-21T13:04:52;5.30;;;4.40;;
5137;SDS011;53959;53.626;11.410;2022-07-21T13:07:18;4.80;;;4.30;;
5137;SDS011;53959;53.626;11.410;2022-07-21T13:09:44;5.27;;;4.30;;
5137;SDS011;53959;53.626;11.410;2022-07-21T13:12:11;6.23;;;4.63;;
5137;SDS011;53959;53.626;11.410;2022-07-21T13:14:38;9.00;;;5.20;;
5137;SDS011;53959;53.626;11.410;2022-07-21T13:17:04;8.00;;;5.17;;
5137;SDS011;53959;53.626;11.410;2022-07-21T13:19:30;5.53;;;4.97;;
5137;SDS011;53959;53.626;11.410;2022-07-21T13:21:55;7.97;;;5.00;;
5137;SDS011;53959;53.626;11.410;2022-07-21T13:24:21;7.60;;;4.43;;
5137;SDS011;53959;53.626;11.410;2022-07-21T13:26:46;5.30;;;4.40;;
5137;SDS011;53959;53.626;11.410;2022-07-21T13:29:12;7.67;;;4.50;;
5137;SDS011;53959;53.626;11.410;2022-07-21T13:31:37;5.43;;;4.47;;
5137;SDS011;53959;53.626;11.410;2022-07-21T13:34:03;8.13;;;5.13;;
5137;SDS011;53959;53.626;11.410;2022-07-21T13:36:32;13.00;;;6.10;;
5137;SDS011;53959;53.626;11.410;2022-07-21T13:38:59;7.47;;;5.50;;
5137;SDS011;53959;53.626;11.410;2022-07-21T13:41:24;11.23;;;7.30;;
5137;SDS011;53959;53.626;11.410;2022-07-21T13:43:50;7.13;;;5.77;;
5137;SDS011;53959;53.626;11.410;2022-07-21T13:46:16;11.60;;;6.23;;
5137;SDS011;53959;53.626;11.410;2022-07-21T13:48:42;11.53;;;6.60;;
5137;SDS011;53959;53.626;11.410;2022-07-21T13:51:10;12.90;;;6.20;;
5137;SDS011;53959;53.626;11.410;2022-07-21T13:53:36;9.63;;;6.37;;
5137;SDS011;53959;53.626;11.410;2022-07-21T13:56:03;10.70;;;6.73;;
5137;SDS011;53959;53.626;11.410;2022-07-21T13:58:29;10.57;;;6.70;;
5137;SDS011;53959;53.626;11.410;2022-07-21T14:00:54;19.57;;;7.43;;
5137;SDS011;53959;53.626;11.410;2022-07-21T14:03:20;9.93;;;6.33;;
5137;SDS011;53959;53.626;11.410;2022-07-21T14:05:45;15.13;;;6.63;;
5137;SDS011;53959;53.626;11.410;2022-07-21T14:08:11;10.80;;;7.10;;
5137;SDS011;53959;53.626;11.410;2022-07-21T14:10:36;7.60;;;6.10;;
5137;SDS011;53959;53.626;11.410;2022-07-21T14:13:02;8.40;;;6.90;;
5137;SDS011;53959;53.626;11.410;2022-07-21T14:15:29;8.23;;;6.70;;
5137;SDS011;53959;53.626;11.410;2022-07-21T14:17:55;11.63;;;6.67;;
5137;SDS011;53959;53.626;11.410;2022-07-21T14:20:20;6.83;;;6.13;;
5137;SDS011;53959;53.626;11.410;2022-07-21T14:22:46;8.40;;;7.00;;
5137;SDS011;53959;53.626;11.410;2022-07-21T14:25:11;9.30;;;6.90;;
5137;SDS011;53959;53.626;11.410;2022-07-21T14:27:43;7.77;;;6.30;;
5137;SDS011;53959;53.626;11.410;2022-07-21T14:30:09;10.27;;;6.23;;
5137;SDS011;53959;53.626;11.410;2022-07-21T14:32:35;9.47;;;6.40;;
5137;SDS011;53959;53.626;11.410;2022-07-21T14:35:00;11.40;;;6.93;;
5137;SDS011;53959;53.626;11.410;2022-07-21T14:37:26;13.07;;;7.83;;
5137;SDS011;53959;53.626;11.410;2022-07-21T14:39:51;8.53;;;6.57;;
5137;SDS011;53959;53.626;11.410;2022-07-21T14:42:17;13.30;;;7.17;;
5137;SDS011;53959;53.626;11.410;2022-07-21T14:44:43;14.47;;;6.93;;
5137;SDS011;53959;53.626;11.410;2022-07-21T14:47:09;12.43;;;7.93;;
5137;SDS011;53959;53.626;11.410;2022-07-21T14:49:35;9.10;;;6.60;;
5137;SDS011;53959;53.626;11.410;2022-07-21T14:52:01;11.40;;;6.30;;
5137;SDS011;53959;53.626;11.410;2022-07-21T14:54:27;18.40;;;7.53;;
5137;SDS011;53959;53.626;11.410;2022-07-21T14:56:52;7.47;;;6.60;;
5137;SDS011;53959;53.626;11.410;2022-07-21T14:59:18;9.90;;;6.77;;
5137;SDS011;53959;53.626;11.410;2022-07-21T15:01:44;11.20;;;7.03;;
5137;SDS011;53959;53.626;11.410;2022-07-21T15:04:09;9.43;;;7.30;;
5137;SDS011;53959;53.626;11.410;2022-07-21T15:06:35;13.50;;;6.57;;
5137;SDS011;53959;53.626;11.410;2022-07-21T15:09:00;8.40;;;6.03;;
5137;SDS011;53959;53.626;11.410;2022-07-21T15:11:26;7.90;;;6.27;;
5137;SDS011;53959;53.626;11.410;2022-07-21T15:13:51;10.20;;;6.20;;